Nampa, Idaho
Current Conditions -  °F | °C
As of 11:55 PM on Wednesday 22 Oct 2014 (Local Time) from KMAN Reporting Station
Overcast Overcast  
Wind Chill: 54°   Ceiling: 5000
Heat Index: 54°   Visibility: 8mi
Dew Point: 45°   Wind: 3mph
Humidity: 72%   Direction: 160°SSE
Pressure: 30.03"   Gusts: NA
Location:  43.58°N, 116.57°W
Report Text: KMAN 230555Z AUTO 16003KT 8SM OVC050 12/07 A3003 RMK AO1
Loading
Personal Weather Stations






























Interactive Weather Map
Tropical Storm Tracking
New forecast layout! Learn more

10-Day Weather Forecast

Advertisements
Track Severe Weather on mobile